sensor_id;sensor_type;location;lat;lon;timestamp;temperature;humidity
23560;DHT22;11958;50.836;4.438;2023-06-05T00:00:17;16.20;62.80
23560;DHT22;11958;50.836;4.438;2023-06-05T00:02:43;16.20;63.10
23560;DHT22;11958;50.836;4.438;2023-06-05T00:05:09;16.10;63.40
23560;DHT22;11958;50.836;4.438;2023-06-05T00:07:36;16.00;63.70
23560;DHT22;11958;50.836;4.438;2023-06-05T00:10:04;16.10;63.50
23560;DHT22;11958;50.836;4.438;2023-06-05T00:12:30;16.10;64.10
23560;DHT22;11958;50.836;4.438;2023-06-05T00:14:56;16.00;64.20
23560;DHT22;11958;50.836;4.438;2023-06-05T00:17:21;15.90;64.60
23560;DHT22;11958;50.836;4.438;2023-06-05T00:19:48;15.90;64.50
23560;DHT22;11958;50.836;4.438;2023-06-05T00:22:13;15.90;64.50
23560;DHT22;11958;50.836;4.438;2023-06-05T00:24:39;15.80;64.50
23560;DHT22;11958;50.836;4.438;2023-06-05T00:27:05;15.80;64.70
23560;DHT22;11958;50.836;4.438;2023-06-05T00:29:30;16.00;64.50
23560;DHT22;11958;50.836;4.438;2023-06-05T00:31:56;15.90;64.40
23560;DHT22;11958;50.836;4.438;2023-06-05T00:34:22;15.60;65.20
23560;DHT22;11958;50.836;4.438;2023-06-05T00:36:47;15.80;65.50
23560;DHT22;11958;50.836;4.438;2023-06-05T00:39:16;15.80;64.90
23560;DHT22;11958;50.836;4.438;2023-06-05T00:41:45;15.80;65.50
23560;DHT22;11958;50.836;4.438;2023-06-05T00:44:11;15.80;65.40
23560;DHT22;11958;50.836;4.438;2023-06-05T00:46:38;15.60;66.00
23560;DHT22;11958;50.836;4.438;2023-06-05T00:49:05;15.60;65.30
23560;DHT22;11958;50.836;4.438;2023-06-05T00:51:31;15.50;66.00
23560;DHT22;11958;50.836;4.438;2023-06-05T00:53:57;15.40;66.10
23560;DHT22;11958;50.836;4.438;2023-06-05T00:56:23;15.30;68.20
23560;DHT22;11958;50.836;4.438;2023-06-05T00:58:48;15.30;67.90
23560;DHT22;11958;50.836;4.438;2023-06-05T01:01:14;15.30;68.70
23560;DHT22;11958;50.836;4.438;2023-06-05T01:03:40;15.30;68.70
23560;DHT22;11958;50.836;4.438;2023-06-05T01:06:06;15.20;68.60
23560;DHT22;11958;50.836;4.438;2023-06-05T01:08:33;15.10;69.20
23560;DHT22;11958;50.836;4.438;2023-06-05T01:11:43;15.00;69.10
23560;DHT22;11958;50.836;4.438;2023-06-05T01:16:45;15.00;70.50
23560;DHT22;11958;50.836;4.438;2023-06-05T01:19:14;14.90;70.40
23560;DHT22;11958;50.836;4.438;2023-06-05T01:21:40;14.80;70.50
23560;DHT22;11958;50.836;4.438;2023-06-05T01:24:06;14.80;70.90
23560;DHT22;11958;50.836;4.438;2023-06-05T01:26:45;14.70;70.80
23560;DHT22;11958;50.836;4.438;2023-06-05T01:29:21;14.80;71.10
23560;DHT22;11958;50.836;4.438;2023-06-05T01:31:51;14.90;70.80
23560;DHT22;11958;50.836;4.438;2023-06-05T01:34:20;14.80;70.80
23560;DHT22;11958;50.836;4.438;2023-06-05T01:36:46;14.80;70.40
23560;DHT22;11958;50.836;4.438;2023-06-05T01:39:13;14.70;71.00
23560;DHT22;11958;50.836;4.438;2023-06-05T01:41:39;14.70;70.90
23560;DHT22;11958;50.836;4.438;2023-06-05T01:44:07;14.70;71.20
23560;DHT22;11958;50.836;4.438;2023-06-05T01:46:34;14.60;71.40
23560;DHT22;11958;50.836;4.438;2023-06-05T01:49:01;14.70;71.40
23560;DHT22;11958;50.836;4.438;2023-06-05T01:51:28;14.60;70.80
23560;DHT22;11958;50.836;4.438;2023-06-05T01:53:54;14.60;71.50
23560;DHT22;11958;50.836;4.438;2023-06-05T01:56:21;14.60;70.90
23560;DHT22;11958;50.836;4.438;2023-06-05T01:58:49;14.60;71.10
23560;DHT22;11958;50.836;4.438;2023-06-05T02:01:15;14.40;72.10
23560;DHT22;11958;50.836;4.438;2023-06-05T02:03:47;14.60;71.00
23560;DHT22;11958;50.836;4.438;2023-06-05T02:06:14;14.40;71.40
23560;DHT22;11958;50.836;4.438;2023-06-05T02:08:41;14.40;71.90
23560;DHT22;11958;50.836;4.438;2023-06-05T02:11:06;14.40;72.20
23560;DHT22;11958;50.836;4.438;2023-06-05T02:13:39;14.40;71.90
23560;DHT22;11958;50.836;4.438;2023-06-05T02:16:10;14.30;72.20
23560;DHT22;11958;50.836;4.438;2023-06-05T02:18:36;14.60;71.70
23560;DHT22;11958;50.836;4.438;2023-06-05T02:21:05;14.40;71.50
23560;DHT22;11958;50.836;4.438;2023-06-05T02:23:31;14.40;72.10
23560;DHT22;11958;50.836;4.438;2023-06-05T02:25:57;14.30;72.20
23560;DHT22;11958;50.836;4.438;2023-06-05T02:28:23;14.20;72.50
23560;DHT22;11958;50.836;4.438;2023-06-05T02:30:48;14.20;72.40
23560;DHT22;11958;50.836;4.438;2023-06-05T02:33:15;14.10;72.80
23560;DHT22;11958;50.836;4.438;2023-06-05T02:35:41;14.10;73.00
23560;DHT22;11958;50.836;4.438;2023-06-05T02:38:10;14.00;73.30
23560;DHT22;11958;50.836;4.438;2023-06-05T02:40:38;14.20;72.30
23560;DHT22;11958;50.836;4.438;2023-06-05T02:43:04;14.20;72.70
23560;DHT22;11958;50.836;4.438;2023-06-05T02:45:33;14.10;73.10
23560;DHT22;11958;50.836;4.438;2023-06-05T02:47:59;14.20;72.50
23560;DHT22;11958;50.836;4.438;2023-06-05T02:50:24;14.10;73.10
23560;DHT22;11958;50.836;4.438;2023-06-05T02:52:50;14.00;72.80
23560;DHT22;11958;50.836;4.438;2023-06-05T02:55:16;14.00;72.90
23560;DHT22;11958;50.836;4.438;2023-06-05T02:57:42;14.00;72.90
23560;DHT22;11958;50.836;4.438;2023-06-05T03:00:11;13.80;73.70
23560;DHT22;11958;50.836;4.438;2023-06-05T03:02:41;13.80;73.90
23560;DHT22;11958;50.836;4.438;2023-06-05T03:05:07;13.70;74.20
23560;DHT22;11958;50.836;4.438;2023-06-05T03:07:34;13.70;74.20
23560;DHT22;11958;50.836;4.438;2023-06-05T03:10:01;13.60;74.40
23560;DHT22;11958;50.836;4.438;2023-06-05T03:12:26;13.70;74.40
23560;DHT22;11958;50.836;4.438;2023-06-05T03:14:52;13.70;74.20
23560;DHT22;11958;50.836;4.438;2023-06-05T03:17:18;13.60;74.50
23560;DHT22;11958;50.836;4.438;2023-06-05T03:19:43;13.60;74.80
23560;DHT22;11958;50.836;4.438;2023-06-05T03:22:09;13.60;74.50
23560;DHT22;11958;50.836;4.438;2023-06-05T03:24:34;13.60;74.80
23560;DHT22;11958;50.836;4.438;2023-06-05T03:27:03;13.40;75.20
23560;DHT22;11958;50.836;4.438;2023-06-05T03:29:30;13.40;75.60
23560;DHT22;11958;50.836;4.438;2023-06-05T03:31:55;13.40;75.70
23560;DHT22;11958;50.836;4.438;2023-06-05T03:34:21;13.30;75.60
23560;DHT22;11958;50.836;4.438;2023-06-05T03:36:52;13.40;75.70
23560;DHT22;11958;50.836;4.438;2023-06-05T03:39:18;13.40;75.00
23560;DHT22;11958;50.836;4.438;2023-06-05T03:41:43;13.40;75.30
23560;DHT22;11958;50.836;4.438;2023-06-05T03:44:09;13.30;75.40
23560;DHT22;11958;50.836;4.438;2023-06-05T03:46:35;13.40;75.50
23560;DHT22;11958;50.836;4.438;2023-06-05T03:49:02;13.40;75.50
23560;DHT22;11958;50.836;4.438;2023-06-05T03:51:34;13.30;75.50
23560;DHT22;11958;50.836;4.438;2023-06-05T03:54:01;13.20;75.50
23560;DHT22;11958;50.836;4.438;2023-06-05T03:56:29;13.40;75.20
23560;DHT22;11958;50.836;4.438;2023-06-05T03:59:03;13.40;75.20
23560;DHT22;11958;50.836;4.438;2023-06-05T04:01:37;13.30;75.40
23560;DHT22;11958;50.836;4.438;2023-06-05T04:04:04;13.20;75.70
23560;DHT22;11958;50.836;4.438;2023-06-05T04:06:31;13.20;75.90
23560;DHT22;11958;50.836;4.438;2023-06-05T04:08:58;13.50;75.20
23560;DHT22;11958;50.836;4.438;2023-06-05T04:11:24;13.30;75.40
23560;DHT22;11958;50.836;4.438;2023-06-05T04:13:53;13.20;75.80
23560;DHT22;11958;50.836;4.438;2023-06-05T04:16:19;13.20;75.20
23560;DHT22;11958;50.836;4.438;2023-06-05T04:18:45;13.20;75.50
23560;DHT22;11958;50.836;4.438;2023-06-05T04:21:11;13.20;76.20
23560;DHT22;11958;50.836;4.438;2023-06-05T04:23:37;13.20;75.70
23560;DHT22;11958;50.836;4.438;2023-06-05T04:26:02;13.30;75.30
23560;DHT22;11958;50.836;4.438;2023-06-05T04:28:28;13.60;74.20
23560;DHT22;11958;50.836;4.438;2023-06-05T04:30:55;13.40;74.70
23560;DHT22;11958;50.836;4.438;2023-06-05T04:33:21;13.40;75.40
23560;DHT22;11958;50.836;4.438;2023-06-05T04:35:47;13.70;74.40
23560;DHT22;11958;50.836;4.438;2023-06-05T04:38:12;13.50;74.20
23560;DHT22;11958;50.836;4.438;2023-06-05T04:40:38;13.50;74.50
23560;DHT22;11958;50.836;4.438;2023-06-05T04:43:06;13.40;74.90
23560;DHT22;11958;50.836;4.438;2023-06-05T04:45:34;13.40;74.50
23560;DHT22;11958;50.836;4.438;2023-06-05T04:48:00;13.40;74.60
23560;DHT22;11958;50.836;4.438;2023-06-05T04:50:27;13.50;74.90
23560;DHT22;11958;50.836;4.438;2023-06-05T04:52:55;13.50;74.50
23560;DHT22;11958;50.836;4.438;2023-06-05T04:55:21;13.70;73.40
23560;DHT22;11958;50.836;4.438;2023-06-05T04:57:47;13.70;73.20
23560;DHT22;11958;50.836;4.438;2023-06-05T05:00:15;13.60;73.30
23560;DHT22;11958;50.836;4.438;2023-06-05T05:02:42;13.80;73.20
23560;DHT22;11958;50.836;4.438;2023-06-05T05:05:08;13.90;72.80
23560;DHT22;11958;50.836;4.438;2023-06-05T05:07:34;13.70;73.30
23560;DHT22;11958;50.836;4.438;2023-06-05T05:10:01;14.20;71.30
23560;DHT22;11958;50.836;4.438;2023-06-05T05:12:27;14.00;71.40
23560;DHT22;11958;50.836;4.438;2023-06-05T05:14:52;14.00;72.00
23560;DHT22;11958;50.836;4.438;2023-06-05T05:17:18;14.10;71.60
23560;DHT22;11958;50.836;4.438;2023-06-05T05:19:45;14.20;70.60
23560;DHT22;11958;50.836;4.438;2023-06-05T05:22:13;14.10;71.20
23560;DHT22;11958;50.836;4.438;2023-06-05T05:24:39;14.10;71.20
23560;DHT22;11958;50.836;4.438;2023-06-05T05:27:06;14.10;71.50
23560;DHT22;11958;50.836;4.438;2023-06-05T05:29:33;14.30;70.80
23560;DHT22;11958;50.836;4.438;2023-06-05T05:31:59;14.20;70.80
23560;DHT22;11958;50.836;4.438;2023-06-05T05:34:25;14.20;69.90
23560;DHT22;11958;50.836;4.438;2023-06-05T05:36:50;14.10;71.10
23560;DHT22;11958;50.836;4.438;2023-06-05T05:39:17;14.10;71.30
23560;DHT22;11958;50.836;4.438;2023-06-05T05:41:43;14.20;71.60
23560;DHT22;11958;50.836;4.438;2023-06-05T05:44:09;14.50;69.30
23560;DHT22;11958;50.836;4.438;2023-06-05T05:46:34;14.60;69.20
23560;DHT22;11958;50.836;4.438;2023-06-05T05:49:00;14.50;69.60
23560;DHT22;11958;50.836;4.438;2023-06-05T05:51:26;14.60;69.20
23560;DHT22;11958;50.836;4.438;2023-06-05T05:53:51;14.50;69.00
23560;DHT22;11958;50.836;4.438;2023-06-05T05:56:17;14.30;69.90
23560;DHT22;11958;50.836;4.438;2023-06-05T05:58:43;14.30;70.80
23560;DHT22;11958;50.836;4.438;2023-06-05T06:01:09;14.40;70.30
23560;DHT22;11958;50.836;4.438;2023-06-05T06:03:36;14.80;68.70
23560;DHT22;11958;50.836;4.438;2023-06-05T06:06:03;14.80;67.80
23560;DHT22;11958;50.836;4.438;2023-06-05T06:08:52;14.60;68.70
23560;DHT22;11958;50.836;4.438;2023-06-05T06:14:16;14.50;70.20
23560;DHT22;11958;50.836;4.438;2023-06-05T06:16:42;15.10;68.30
23560;DHT22;11958;50.836;4.438;2023-06-05T06:19:21;15.00;68.40
23560;DHT22;11958;50.836;4.438;2023-06-05T06:21:51;15.20;66.60
23560;DHT22;11958;50.836;4.438;2023-06-05T06:25:32;15.20;66.10
23560;DHT22;11958;50.836;4.438;2023-06-05T06:27:43;15.20;67.10
23560;DHT22;11958;50.836;4.438;2023-06-05T06:30:29;15.10;67.30
23560;DHT22;11958;50.836;4.438;2023-06-05T06:32:58;15.00;68.30
23560;DHT22;11958;50.836;4.438;2023-06-05T06:35:25;15.30;67.40
23560;DHT22;11958;50.836;4.438;2023-06-05T06:37:53;15.40;67.30
23560;DHT22;11958;50.836;4.438;2023-06-05T06:40:21;15.60;65.10
23560;DHT22;11958;50.836;4.438;2023-06-05T06:42:58;15.50;64.60
23560;DHT22;11958;50.836;4.438;2023-06-05T06:45:24;15.60;64.80
23560;DHT22;11958;50.836;4.438;2023-06-05T06:50:23;15.80;64.20
23560;DHT22;11958;50.836;4.438;2023-06-05T06:52:49;15.90;64.60
23560;DHT22;11958;50.836;4.438;2023-06-05T06:55:16;15.60;64.00
23560;DHT22;11958;50.836;4.438;2023-06-05T06:57:44;15.60;64.30
23560;DHT22;11958;50.836;4.438;2023-06-05T07:00:10;15.60;64.70
23560;DHT22;11958;50.836;4.438;2023-06-05T07:02:40;15.70;63.60
23560;DHT22;11958;50.836;4.438;2023-06-05T07:05:05;15.50;64.60
23560;DHT22;11958;50.836;4.438;2023-06-05T07:07:31;15.80;64.80
23560;DHT22;11958;50.836;4.438;2023-06-05T07:09:57;16.00;62.70
23560;DHT22;11958;50.836;4.438;2023-06-05T07:12:23;16.10;63.60
23560;DHT22;11958;50.836;4.438;2023-06-05T07:14:52;16.00;63.00
23560;DHT22;11958;50.836;4.438;2023-06-05T07:17:19;16.10;62.70
23560;DHT22;11958;50.836;4.438;2023-06-05T07:19:45;16.00;63.00
23560;DHT22;11958;50.836;4.438;2023-06-05T07:22:11;15.90;62.90
23560;DHT22;11958;50.836;4.438;2023-06-05T07:24:41;16.00;62.40
23560;DHT22;11958;50.836;4.438;2023-06-05T07:27:07;16.20;62.30
23560;DHT22;11958;50.836;4.438;2023-06-05T07:29:33;16.10;61.90
23560;DHT22;11958;50.836;4.438;2023-06-05T07:31:59;16.30;61.90
23560;DHT22;11958;50.836;4.438;2023-06-05T07:34:26;16.40;61.80
23560;DHT22;11958;50.836;4.438;2023-06-05T07:36:52;16.50;61.20
23560;DHT22;11958;50.836;4.438;2023-06-05T07:39:22;16.50;62.10
23560;DHT22;11958;50.836;4.438;2023-06-05T07:41:48;16.40;61.90
23560;DHT22;11958;50.836;4.438;2023-06-05T07:44:15;16.50;61.70
23560;DHT22;11958;50.836;4.438;2023-06-05T07:46:42;16.60;61.50
23560;DHT22;11958;50.836;4.438;2023-06-05T07:49:08;16.60;61.70
23560;DHT22;11958;50.836;4.438;2023-06-05T07:51:35;16.70;61.80
23560;DHT22;11958;50.836;4.438;2023-06-05T07:54:07;16.80;60.30
23560;DHT22;11958;50.836;4.438;2023-06-05T07:56:33;17.00;60.90
23560;DHT22;11958;50.836;4.438;2023-06-05T07:59:00;17.20;60.00
23560;DHT22;11958;50.836;4.438;2023-06-05T08:01:31;17.50;59.50
23560;DHT22;11958;50.836;4.438;2023-06-05T08:03:57;17.50;59.50
23560;DHT22;11958;50.836;4.438;2023-06-05T08:06:24;17.80;58.90
23560;DHT22;11958;50.836;4.438;2023-06-05T08:08:53;17.80;58.20
23560;DHT22;11958;50.836;4.438;2023-06-05T08:11:19;17.80;58.00
23560;DHT22;11958;50.836;4.438;2023-06-05T08:13:44;18.00;57.30
23560;DHT22;11958;50.836;4.438;2023-06-05T08:16:10;18.10;56.00
23560;DHT22;11958;50.836;4.438;2023-06-05T08:18:38;18.50;53.20
23560;DHT22;11958;50.836;4.438;2023-06-05T08:21:03;18.20;55.30
23560;DHT22;11958;50.836;4.438;2023-06-05T08:23:29;18.20;55.50
23560;DHT22;11958;50.836;4.438;2023-06-05T08:25:55;18.30;55.10
23560;DHT22;11958;50.836;4.438;2023-06-05T08:28:21;18.20;55.90
23560;DHT22;11958;50.836;4.438;2023-06-05T08:30:47;18.20;54.40
23560;DHT22;11958;50.836;4.438;2023-06-05T08:33:13;18.20;54.90
23560;DHT22;11958;50.836;4.438;2023-06-05T08:35:40;18.10;56.70
23560;DHT22;11958;50.836;4.438;2023-06-05T08:38:07;18.20;55.00
23560;DHT22;11958;50.836;4.438;2023-06-05T08:40:33;18.80;53.60
23560;DHT22;11958;50.836;4.438;2023-06-05T08:43:02;18.80;53.50
23560;DHT22;11958;50.836;4.438;2023-06-05T08:45:30;18.60;54.50
23560;DHT22;11958;50.836;4.438;2023-06-05T08:47:59;18.50;53.70
23560;DHT22;11958;50.836;4.438;2023-06-05T08:50:30;18.70;53.90
23560;DHT22;11958;50.836;4.438;2023-06-05T08:52:59;19.10;53.50
23560;DHT22;11958;50.836;4.438;2023-06-05T08:55:25;18.90;52.20
23560;DHT22;11958;50.836;4.438;2023-06-05T08:57:52;18.80;53.20
23560;DHT22;11958;50.836;4.438;2023-06-05T09:00:18;18.80;52.70
23560;DHT22;11958;50.836;4.438;2023-06-05T09:02:43;18.80;53.90
23560;DHT22;11958;50.836;4.438;2023-06-05T09:05:12;19.20;51.80
23560;DHT22;11958;50.836;4.438;2023-06-05T09:07:38;19.10;52.70
23560;DHT22;11958;50.836;4.438;2023-06-05T09:10:21;19.30;51.00
23560;DHT22;11958;50.836;4.438;2023-06-05T09:12:57;19.30;51.40
23560;DHT22;11958;50.836;4.438;2023-06-05T09:18:09;20.10;49.00
23560;DHT22;11958;50.836;4.438;2023-06-05T09:20:42;19.70;50.30
23560;DHT22;11958;50.836;4.438;2023-06-05T09:23:25;19.50;50.20
23560;DHT22;11958;50.836;4.438;2023-06-05T09:25:53;19.60;49.40
23560;DHT22;11958;50.836;4.438;2023-06-05T09:28:19;19.80;49.70
23560;DHT22;11958;50.836;4.438;2023-06-05T09:31:05;19.80;48.90
23560;DHT22;11958;50.836;4.438;2023-06-05T09:33:32;19.60;49.30
23560;DHT22;11958;50.836;4.438;2023-06-05T09:36:12;19.70;49.60
23560;DHT22;11958;50.836;4.438;2023-06-05T09:38:39;20.10;47.90
23560;DHT22;11958;50.836;4.438;2023-06-05T09:41:07;19.90;48.30
23560;DHT22;11958;50.836;4.438;2023-06-05T09:43:33;19.90;49.40
23560;DHT22;11958;50.836;4.438;2023-06-05T09:48:34;20.10;47.00
23560;DHT22;11958;50.836;4.438;2023-06-05T09:51:12;20.30;46.40
23560;DHT22;11958;50.836;4.438;2023-06-05T09:53:44;20.40;46.90
23560;DHT22;11958;50.836;4.438;2023-06-05T09:56:15;20.60;46.60
23560;DHT22;11958;50.836;4.438;2023-06-05T09:59:01;20.60;46.20
23560;DHT22;11958;50.836;4.438;2023-06-05T10:01:29;20.60;45.70
23560;DHT22;11958;50.836;4.438;2023-06-05T10:04:00;20.80;45.50
23560;DHT22;11958;50.836;4.438;2023-06-05T10:06:29;20.80;44.90
23560;DHT22;11958;50.836;4.438;2023-06-05T10:08:55;21.00;44.20
23560;DHT22;11958;50.836;4.438;2023-06-05T10:11:23;20.70;45.50
23560;DHT22;11958;50.836;4.438;2023-06-05T10:13:50;21.10;43.60
23560;DHT22;11958;50.836;4.438;2023-06-05T10:16:19;21.00;43.90
23560;DHT22;11958;50.836;4.438;2023-06-05T10:18:48;21.00;44.10
23560;DHT22;11958;50.836;4.438;2023-06-05T10:21:18;21.30;42.80
23560;DHT22;11958;50.836;4.438;2023-06-05T10:24:11;21.50;42.30
23560;DHT22;11958;50.836;4.438;2023-06-05T10:27:02;22.00;42.50
23560;DHT22;11958;50.836;4.438;2023-06-05T10:30:00;21.50;42.00
23560;DHT22;11958;50.836;4.438;2023-06-05T10:40:29;21.90;39.70
23560;DHT22;11958;50.836;4.438;2023-06-05T10:43:28;21.90;40.80
23560;DHT22;11958;50.836;4.438;2023-06-05T10:45:55;22.00;41.50
23560;DHT22;11958;50.836;4.438;2023-06-05T10:48:21;22.00;39.60
23560;DHT22;11958;50.836;4.438;2023-06-05T10:51:32;22.40;39.60
23560;DHT22;11958;50.836;4.438;2023-06-05T10:54:10;22.50;38.40
23560;DHT22;11958;50.836;4.438;2023-06-05T10:59:37;23.30;36.80
23560;DHT22;11958;50.836;4.438;2023-06-05T11:07:26;23.40;37.00
23560;DHT22;11958;50.836;4.438;2023-06-05T11:10:05;23.10;38.00
23560;DHT22;11958;50.836;4.438;2023-06-05T11:15:10;23.90;36.50
23560;DHT22;11958;50.836;4.438;2023-06-05T11:17:41;23.70;34.60
23560;DHT22;11958;50.836;4.438;2023-06-05T11:20:07;23.40;35.20
23560;DHT22;11958;50.836;4.438;2023-06-05T11:27:59;24.10;32.50
23560;DHT22;11958;50.836;4.438;2023-06-05T11:30:31;24.00;32.80
23560;DHT22;11958;50.836;4.438;2023-06-05T11:33:14;23.80;33.40
23560;DHT22;11958;50.836;4.438;2023-06-05T11:35:42;23.60;35.00
23560;DHT22;11958;50.836;4.438;2023-06-05T11:38:18;23.50;34.20
23560;DHT22;11958;50.836;4.438;2023-06-05T11:40:46;23.90;34.30
23560;DHT22;11958;50.836;4.438;2023-06-05T11:43:13;23.60;32.50
23560;DHT22;11958;50.836;4.438;2023-06-05T11:45:54;23.90;32.40
23560;DHT22;11958;50.836;4.438;2023-06-05T11:48:19;24.40;31.80
23560;DHT22;11958;50.836;4.438;2023-06-05T11:53:31;24.30;31.50
23560;DHT22;11958;50.836;4.438;2023-06-05T11:56:11;24.50;31.10
23560;DHT22;11958;50.836;4.438;2023-06-05T11:58:43;24.40;31.60
23560;DHT22;11958;50.836;4.438;2023-06-05T12:01:16;24.30;31.70
23560;DHT22;11958;50.836;4.438;2023-06-05T12:04:07;24.20;30.40
23560;DHT22;11958;50.836;4.438;2023-06-05T12:06:40;24.40;31.70
23560;DHT22;11958;50.836;4.438;2023-06-05T12:09:24;24.70;31.10
23560;DHT22;11958;50.836;4.438;2023-06-05T12:12:06;25.20;27.30
23560;DHT22;11958;50.836;4.438;2023-06-05T12:14:33;25.50;29.40
23560;DHT22;11958;50.836;4.438;2023-06-05T12:16:59;26.10;28.90
23560;DHT22;11958;50.836;4.438;2023-06-05T12:19:25;27.10;26.00
23560;DHT22;11958;50.836;4.438;2023-06-05T12:22:01;27.50;25.10
23560;DHT22;11958;50.836;4.438;2023-06-05T12:24:27;28.20;24.20
23560;DHT22;11958;50.836;4.438;2023-06-05T12:26:58;28.70;24.30
23560;DHT22;11958;50.836;4.438;2023-06-05T12:29:26;30.10;22.00
23560;DHT22;11958;50.836;4.438;2023-06-05T12:31:54;29.70;21.70
23560;DHT22;11958;50.836;4.438;2023-06-05T12:34:51;30.80;20.30
23560;DHT22;11958;50.836;4.438;2023-06-05T12:37:27;29.20;22.00
23560;DHT22;11958;50.836;4.438;2023-06-05T12:39:58;30.90;21.50
23560;DHT22;11958;50.836;4.438;2023-06-05T12:42:27;31.00;20.20
23560;DHT22;11958;50.836;4.438;2023-06-05T12:44:54;31.00;19.50
23560;DHT22;11958;50.836;4.438;2023-06-05T12:47:29;30.80;19.90
23560;DHT22;11958;50.836;4.438;2023-06-05T12:49:58;31.20;19.50
23560;DHT22;11958;50.836;4.438;2023-06-05T12:52:24;30.20;20.80
23560;DHT22;11958;50.836;4.438;2023-06-05T12:55:07;30.60;20.40
23560;DHT22;11958;50.836;4.438;2023-06-05T12:57:34;31.00;20.10
23560;DHT22;11958;50.836;4.438;2023-06-05T13:00:03;31.30;19.80
23560;DHT22;11958;50.836;4.438;2023-06-05T13:02:42;31.30;19.20
23560;DHT22;11958;50.836;4.438;2023-06-05T13:05:12;31.90;18.70
23560;DHT22;11958;50.836;4.438;2023-06-05T13:07:39;32.20;18.50
23560;DHT22;11958;50.836;4.438;2023-06-05T13:10:06;32.10;18.80
23560;DHT22;11958;50.836;4.438;2023-06-05T13:12:32;31.80;18.40
23560;DHT22;11958;50.836;4.438;2023-06-05T13:14:57;30.80;18.90
23560;DHT22;11958;50.836;4.438;2023-06-05T13:17:25;30.00;19.90
23560;DHT22;11958;50.836;4.438;2023-06-05T13:19:59;30.30;19.70
23560;DHT22;11958;50.836;4.438;2023-06-05T13:22:25;31.40;19.00
23560;DHT22;11958;50.836;4.438;2023-06-05T13:24:51;32.30;18.10
23560;DHT22;11958;50.836;4.438;2023-06-05T13:27:17;32.30;17.30
23560;DHT22;11958;50.836;4.438;2023-06-05T13:29:44;31.70;18.50
23560;DHT22;11958;50.836;4.438;2023-06-05T13:32:09;31.20;18.60
23560;DHT22;11958;50.836;4.438;2023-06-05T13:34:35;30.20;18.60
23560;DHT22;11958;50.836;4.438;2023-06-05T13:37:02;29.20;19.80
23560;DHT22;11958;50.836;4.438;2023-06-05T13:39:28;30.10;19.40
23560;DHT22;11958;50.836;4.438;2023-06-05T13:41:54;30.90;18.10
23560;DHT22;11958;50.836;4.438;2023-06-05T13:44:20;29.90;18.60
23560;DHT22;11958;50.836;4.438;2023-06-05T13:46:46;30.90;18.20
23560;DHT22;11958;50.836;4.438;2023-06-05T13:49:12;31.80;17.10
23560;DHT22;11958;50.836;4.438;2023-06-05T13:51:37;31.80;17.40
23560;DHT22;11958;50.836;4.438;2023-06-05T13:54:04;31.30;17.80
23560;DHT22;11958;50.836;4.438;2023-06-05T13:56:30;30.40;18.10
23560;DHT22;11958;50.836;4.438;2023-06-05T13:58:55;31.00;18.30
23560;DHT22;11958;50.836;4.438;2023-06-05T14:01:23;31.40;17.40
23560;DHT22;11958;50.836;4.438;2023-06-05T14:03:49;31.70;18.00
23560;DHT22;11958;50.836;4.438;2023-06-05T14:06:16;32.30;16.70
23560;DHT22;11958;50.836;4.438;2023-06-05T14:08:42;32.60;16.00
23560;DHT22;11958;50.836;4.438;2023-06-05T14:11:08;31.90;16.90
23560;DHT22;11958;50.836;4.438;2023-06-05T14:13:35;31.20;16.90
23560;DHT22;11958;50.836;4.438;2023-06-05T14:16:01;31.10;17.30
23560;DHT22;11958;50.836;4.438;2023-06-05T14:18:29;31.30;17.50
23560;DHT22;11958;50.836;4.438;2023-06-05T14:20:55;32.30;17.10
23560;DHT22;11958;50.836;4.438;2023-06-05T14:23:21;32.60;16.60
23560;DHT22;11958;50.836;4.438;2023-06-05T14:25:52;32.70;15.90
23560;DHT22;11958;50.836;4.438;2023-06-05T14:28:24;31.60;16.80
23560;DHT22;11958;50.836;4.438;2023-06-05T14:30:51;31.60;17.50
23560;DHT22;11958;50.836;4.438;2023-06-05T14:33:16;32.30;15.80
23560;DHT22;11958;50.836;4.438;2023-06-05T14:35:49;32.40;16.00
23560;DHT22;11958;50.836;4.438;2023-06-05T14:38:25;32.60;15.50
23560;DHT22;11958;50.836;4.438;2023-06-05T14:40:51;31.30;17.00
23560;DHT22;11958;50.836;4.438;2023-06-05T14:43:24;31.10;17.50
23560;DHT22;11958;50.836;4.438;2023-06-05T14:46:07;32.00;16.40
23560;DHT22;11958;50.836;4.438;2023-06-05T14:50:58;33.00;15.40
23560;DHT22;11958;50.836;4.438;2023-06-05T14:53:36;32.70;15.90
23560;DHT22;11958;50.836;4.438;2023-06-05T14:56:10;32.40;16.70
23560;DHT22;11958;50.836;4.438;2023-06-05T14:58:46;32.20;16.40
23560;DHT22;11958;50.836;4.438;2023-06-05T15:01:20;31.60;16.60
23560;DHT22;11958;50.836;4.438;2023-06-05T15:03:46;31.20;17.00
23560;DHT22;11958;50.836;4.438;2023-06-05T15:06:13;30.80;17.50
23560;DHT22;11958;50.836;4.438;2023-06-05T15:08:40;30.50;17.00
23560;DHT22;11958;50.836;4.438;2023-06-05T15:11:05;30.60;17.00
23560;DHT22;11958;50.836;4.438;2023-06-05T15:13:31;30.20;17.50
23560;DHT22;11958;50.836;4.438;2023-06-05T15:15:57;29.80;18.20
23560;DHT22;11958;50.836;4.438;2023-06-05T15:18:25;29.00;19.20
23560;DHT22;11958;50.836;4.438;2023-06-05T15:20:51;28.70;19.80
23560;DHT22;11958;50.836;4.438;2023-06-05T15:23:17;28.00;20.90
23560;DHT22;11958;50.836;4.438;2023-06-05T15:25:43;27.40;21.40
23560;DHT22;11958;50.836;4.438;2023-06-05T15:28:09;26.60;22.20
23560;DHT22;11958;50.836;4.438;2023-06-05T15:30:41;26.10;23.60
23560;DHT22;11958;50.836;4.438;2023-06-05T15:33:06;26.10;23.80
23560;DHT22;11958;50.836;4.438;2023-06-05T15:35:32;26.00;24.00
23560;DHT22;11958;50.836;4.438;2023-06-05T15:40:50;26.50;24.30
23560;DHT22;11958;50.836;4.438;2023-06-05T15:43:22;26.80;23.70
23560;DHT22;11958;50.836;4.438;2023-06-05T15:45:54;26.70;23.00
23560;DHT22;11958;50.836;4.438;2023-06-05T15:48:30;26.30;24.90
23560;DHT22;11958;50.836;4.438;2023-06-05T15:50:56;26.10;24.70
23560;DHT22;11958;50.836;4.438;2023-06-05T15:53:23;26.20;24.80
23560;DHT22;11958;50.836;4.438;2023-06-05T15:55:48;26.30;24.30
23560;DHT22;11958;50.836;4.438;2023-06-05T15:58:14;26.30;24.80
23560;DHT22;11958;50.836;4.438;2023-06-05T16:00:40;26.20;24.70
23560;DHT22;11958;50.836;4.438;2023-06-05T16:03:06;26.30;24.70
23560;DHT22;11958;50.836;4.438;2023-06-05T16:05:32;26.20;24.90
23560;DHT22;11958;50.836;4.438;2023-06-05T16:07:57;26.50;24.10
23560;DHT22;11958;50.836;4.438;2023-06-05T16:10:23;26.60;24.40
23560;DHT22;11958;50.836;4.438;2023-06-05T16:12:49;26.20;25.10
23560;DHT22;11958;50.836;4.438;2023-06-05T16:15:18;26.00;25.70
23560;DHT22;11958;50.836;4.438;2023-06-05T16:17:47;25.50;26.40
23560;DHT22;11958;50.836;4.438;2023-06-05T16:20:16;25.40;26.00
23560;DHT22;11958;50.836;4.438;2023-06-05T16:22:51;25.60;26.00
23560;DHT22;11958;50.836;4.438;2023-06-05T16:25:17;25.10;26.80